sensor_id;sensor_type;location;lat;lon;timestamp;temperature;humidity
59311;DHT22;45078;51.654;21.250;2023-05-10T00:01:25;5.60;99.90
59311;DHT22;45078;51.654;21.250;2023-05-10T00:03:51;5.60;99.90
59311;DHT22;45078;51.654;21.250;2023-05-10T00:06:17;5.50;99.90
59311;DHT22;45078;51.654;21.250;2023-05-10T00:08:44;5.60;99.90
59311;DHT22;45078;51.654;21.250;2023-05-10T00:11:09;5.50;99.90
59311;DHT22;45078;51.654;21.250;2023-05-10T00:13:35;5.40;99.90
59311;DHT22;45078;51.654;21.250;2023-05-10T00:16:01;5.40;99.90
59311;DHT22;45078;51.654;21.250;2023-05-10T00:18:27;5.40;99.90
59311;DHT22;45078;51.654;21.250;2023-05-10T00:20:52;5.40;99.90
59311;DHT22;45078;51.654;21.250;2023-05-10T00:23:18;5.40;99.90
59311;DHT22;45078;51.654;21.250;2023-05-10T00:25:44;5.40;99.90
59311;DHT22;45078;51.654;21.250;2023-05-10T00:28:10;5.30;99.90
59311;DHT22;45078;51.654;21.250;2023-05-10T00:30:35;5.30;99.90
59311;DHT22;45078;51.654;21.250;2023-05-10T00:33:01;5.20;99.90
59311;DHT22;45078;51.654;21.250;2023-05-10T00:35:27;5.30;99.90
59311;DHT22;45078;51.654;21.250;2023-05-10T00:37:53;5.20;99.90
59311;DHT22;45078;51.654;21.250;2023-05-10T00:40:18;5.20;99.90
59311;DHT22;45078;51.654;21.250;2023-05-10T00:42:44;5.30;99.90
59311;DHT22;45078;51.654;21.250;2023-05-10T00:45:10;5.20;99.90
59311;DHT22;45078;51.654;21.250;2023-05-10T00:47:36;5.30;99.90
59311;DHT22;45078;51.654;21.250;2023-05-10T00:50:02;5.20;99.90
59311;DHT22;45078;51.654;21.250;2023-05-10T00:52:30;5.20;99.90
59311;DHT22;45078;51.654;21.250;2023-05-10T00:54:56;5.20;99.90
59311;DHT22;45078;51.654;21.250;2023-05-10T00:57:22;5.10;99.90
59311;DHT22;45078;51.654;21.250;2023-05-10T00:59:48;5.10;99.90
59311;DHT22;45078;51.654;21.250;2023-05-10T01:02:14;5.10;99.90
59311;DHT22;45078;51.654;21.250;2023-05-10T01:04:40;5.10;99.90
59311;DHT22;45078;51.654;21.250;2023-05-10T01:07:06;5.10;99.90
59311;DHT22;45078;51.654;21.250;2023-05-10T01:09:32;5.10;99.90
59311;DHT22;45078;51.654;21.250;2023-05-10T01:11:59;5.00;99.90
59311;DHT22;45078;51.654;21.250;2023-05-10T01:14:27;5.00;99.90
59311;DHT22;45078;51.654;21.250;2023-05-10T01:16:53;5.00;99.90
59311;DHT22;45078;51.654;21.250;2023-05-10T01:19:23;4.90;99.90
59311;DHT22;45078;51.654;21.250;2023-05-10T01:35:32;4.70;99.90
59311;DHT22;45078;51.654;21.250;2023-05-10T01:38:33;4.60;99.90
59311;DHT22;45078;51.654;21.250;2023-05-10T01:46:40;4.60;99.90
59311;DHT22;45078;51.654;21.250;2023-05-10T01:49:13;4.50;99.90
59311;DHT22;45078;51.654;21.250;2023-05-10T01:51:45;4.60;99.90
59311;DHT22;45078;51.654;21.250;2023-05-10T01:54:13;4.60;99.90
59311;DHT22;45078;51.654;21.250;2023-05-10T01:56:42;4.50;99.90
59311;DHT22;45078;51.654;21.250;2023-05-10T01:59:13;4.50;99.90
59311;DHT22;45078;51.654;21.250;2023-05-10T02:01:41;4.40;99.90
59311;DHT22;45078;51.654;21.250;2023-05-10T02:04:09;4.40;99.90
59311;DHT22;45078;51.654;21.250;2023-05-10T02:06:35;4.40;99.90
59311;DHT22;45078;51.654;21.250;2023-05-10T02:09:03;4.40;99.90
59311;DHT22;45078;51.654;21.250;2023-05-10T02:11:29;4.30;99.90
59311;DHT22;45078;51.654;21.250;2023-05-10T02:13:56;4.40;99.90
59311;DHT22;45078;51.654;21.250;2023-05-10T02:16:25;4.30;99.90
59311;DHT22;45078;51.654;21.250;2023-05-10T02:18:52;4.30;99.90
59311;DHT22;45078;51.654;21.250;2023-05-10T02:21:20;4.30;99.90
59311;DHT22;45078;51.654;21.250;2023-05-10T02:23:46;4.30;99.90
59311;DHT22;45078;51.654;21.250;2023-05-10T02:26:14;4.30;99.90
59311;DHT22;45078;51.654;21.250;2023-05-10T02:28:42;4.30;99.90
59311;DHT22;45078;51.654;21.250;2023-05-10T02:31:09;4.20;99.90
59311;DHT22;45078;51.654;21.250;2023-05-10T02:33:38;4.20;99.90
59311;DHT22;45078;51.654;21.250;2023-05-10T02:36:05;4.20;99.90
59311;DHT22;45078;51.654;21.250;2023-05-10T02:38:33;4.20;99.90
59311;DHT22;45078;51.654;21.250;2023-05-10T02:41:00;4.10;99.90
59311;DHT22;45078;51.654;21.250;2023-05-10T02:43:28;4.10;99.90
59311;DHT22;45078;51.654;21.250;2023-05-10T02:45:55;4.10;99.90
59311;DHT22;45078;51.654;21.250;2023-05-10T02:48:21;4.10;99.90
59311;DHT22;45078;51.654;21.250;2023-05-10T02:50:47;4.00;99.90
59311;DHT22;45078;51.654;21.250;2023-05-10T02:53:20;4.00;99.90
59311;DHT22;45078;51.654;21.250;2023-05-10T02:55:51;4.10;99.90
59311;DHT22;45078;51.654;21.250;2023-05-10T02:58:18;4.00;99.90
59311;DHT22;45078;51.654;21.250;2023-05-10T03:00:45;4.00;99.90
59311;DHT22;45078;51.654;21.250;2023-05-10T03:03:12;4.00;99.90
59311;DHT22;45078;51.654;21.250;2023-05-10T03:05:37;4.00;99.90
59311;DHT22;45078;51.654;21.250;2023-05-10T03:08:03;4.10;99.90
59311;DHT22;45078;51.654;21.250;2023-05-10T03:10:31;4.10;99.90
59311;DHT22;45078;51.654;21.250;2023-05-10T03:16:12;4.00;99.90
59311;DHT22;45078;51.654;21.250;2023-05-10T03:21:22;4.00;99.90
59311;DHT22;45078;51.654;21.250;2023-05-10T03:23:53;4.10;99.90
59311;DHT22;45078;51.654;21.250;2023-05-10T03:26:26;4.20;99.90
59311;DHT22;45078;51.654;21.250;2023-05-10T03:28:52;4.20;99.90
59311;DHT22;45078;51.654;21.250;2023-05-10T03:31:18;4.30;99.90
59311;DHT22;45078;51.654;21.250;2023-05-10T03:33:51;4.30;99.90
59311;DHT22;45078;51.654;21.250;2023-05-10T03:36:20;4.30;99.90
59311;DHT22;45078;51.654;21.250;2023-05-10T03:38:46;4.40;99.90
59311;DHT22;45078;51.654;21.250;2023-05-10T03:41:12;4.40;99.90
59311;DHT22;45078;51.654;21.250;2023-05-10T03:43:38;4.50;99.90
59311;DHT22;45078;51.654;21.250;2023-05-10T03:46:04;4.50;99.90
59311;DHT22;45078;51.654;21.250;2023-05-10T03:48:31;4.60;99.90
59311;DHT22;45078;51.654;21.250;2023-05-10T03:50:57;4.60;99.90
59311;DHT22;45078;51.654;21.250;2023-05-10T03:53:23;4.70;99.90
59311;DHT22;45078;51.654;21.250;2023-05-10T03:55:49;4.80;99.90
59311;DHT22;45078;51.654;21.250;2023-05-10T03:58:15;4.80;99.90
59311;DHT22;45078;51.654;21.250;2023-05-10T04:00:41;4.90;99.90
59311;DHT22;45078;51.654;21.250;2023-05-10T04:03:09;5.00;99.90
59311;DHT22;45078;51.654;21.250;2023-05-10T04:05:36;5.10;99.90
59311;DHT22;45078;51.654;21.250;2023-05-10T04:08:02;5.20;99.90
59311;DHT22;45078;51.654;21.250;2023-05-10T04:10:28;5.30;99.90
59311;DHT22;45078;51.654;21.250;2023-05-10T04:12:54;5.40;99.90
59311;DHT22;45078;51.654;21.250;2023-05-10T04:15:20;5.50;99.90
59311;DHT22;45078;51.654;21.250;2023-05-10T04:17:45;5.50;99.90
59311;DHT22;45078;51.654;21.250;2023-05-10T04:20:11;5.60;99.90
59311;DHT22;45078;51.654;21.250;2023-05-10T04:22:37;5.70;99.90
59311;DHT22;45078;51.654;21.250;2023-05-10T04:25:03;5.80;99.90
59311;DHT22;45078;51.654;21.250;2023-05-10T04:27:30;6.00;99.90
59311;DHT22;45078;51.654;21.250;2023-05-10T04:29:57;6.10;99.90
59311;DHT22;45078;51.654;21.250;2023-05-10T04:32:23;6.20;99.90
59311;DHT22;45078;51.654;21.250;2023-05-10T04:34:49;6.30;99.90
59311;DHT22;45078;51.654;21.250;2023-05-10T04:37:16;6.40;99.90
59311;DHT22;45078;51.654;21.250;2023-05-10T04:39:41;6.50;99.90
59311;DHT22;45078;51.654;21.250;2023-05-10T04:42:07;6.60;99.90
59311;DHT22;45078;51.654;21.250;2023-05-10T04:44:33;6.70;99.90
59311;DHT22;45078;51.654;21.250;2023-05-10T04:46:59;6.90;99.90
59311;DHT22;45078;51.654;21.250;2023-05-10T04:49:25;7.00;99.90
59311;DHT22;45078;51.654;21.250;2023-05-10T04:51:50;7.10;99.90
59311;DHT22;45078;51.654;21.250;2023-05-10T04:54:16;7.20;99.90
59311;DHT22;45078;51.654;21.250;2023-05-10T04:56:42;7.40;99.90
59311;DHT22;45078;51.654;21.250;2023-05-10T04:59:07;7.50;99.90
59311;DHT22;45078;51.654;21.250;2023-05-10T05:01:33;7.70;99.90
59311;DHT22;45078;51.654;21.250;2023-05-10T05:03:59;7.80;99.90
59311;DHT22;45078;51.654;21.250;2023-05-10T05:06:25;7.80;99.90
59311;DHT22;45078;51.654;21.250;2023-05-10T05:08:52;8.00;99.90
59311;DHT22;45078;51.654;21.250;2023-05-10T05:11:18;8.10;99.90
59311;DHT22;45078;51.654;21.250;2023-05-10T05:13:44;8.30;99.90
59311;DHT22;45078;51.654;21.250;2023-05-10T05:16:11;8.50;99.90
59311;DHT22;45078;51.654;21.250;2023-05-10T05:18:36;8.60;99.90
59311;DHT22;45078;51.654;21.250;2023-05-10T05:21:02;8.90;99.90
59311;DHT22;45078;51.654;21.250;2023-05-10T05:23:28;9.10;99.90
59311;DHT22;45078;51.654;21.250;2023-05-10T05:25:54;9.30;99.90
59311;DHT22;45078;51.654;21.250;2023-05-10T05:28:20;9.50;99.90
59311;DHT22;45078;51.654;21.250;2023-05-10T05:30:46;9.60;99.90
59311;DHT22;45078;51.654;21.250;2023-05-10T05:33:15;9.70;99.90
59311;DHT22;45078;51.654;21.250;2023-05-10T05:35:41;9.80;99.90
59311;DHT22;45078;51.654;21.250;2023-05-10T05:38:08;10.00;99.90
59311;DHT22;45078;51.654;21.250;2023-05-10T05:40:34;10.20;99.90
59311;DHT22;45078;51.654;21.250;2023-05-10T05:42:59;10.50;99.90
59311;DHT22;45078;51.654;21.250;2023-05-10T05:45:25;10.80;99.70
59311;DHT22;45078;51.654;21.250;2023-05-10T05:47:51;11.00;99.90
59311;DHT22;45078;51.654;21.250;2023-05-10T05:50:17;11.20;99.10
59311;DHT22;45078;51.654;21.250;2023-05-10T05:52:43;11.30;97.40
59311;DHT22;45078;51.654;21.250;2023-05-10T05:55:09;11.40;97.20
59311;DHT22;45078;51.654;21.250;2023-05-10T05:57:34;11.60;97.30
59311;DHT22;45078;51.654;21.250;2023-05-10T06:00:00;11.90;95.90
59311;DHT22;45078;51.654;21.250;2023-05-10T06:02:26;12.00;96.40
59311;DHT22;45078;51.654;21.250;2023-05-10T06:04:52;12.10;94.80
59311;DHT22;45078;51.654;21.250;2023-05-10T06:07:17;12.00;94.40
59311;DHT22;45078;51.654;21.250;2023-05-10T06:09:43;12.20;93.90
59311;DHT22;45078;51.654;21.250;2023-05-10T06:12:09;12.50;94.70
59311;DHT22;45078;51.654;21.250;2023-05-10T06:14:35;12.60;92.90
59311;DHT22;45078;51.654;21.250;2023-05-10T06:17:01;12.60;92.80
59311;DHT22;45078;51.654;21.250;2023-05-10T06:19:29;12.70;91.40
59311;DHT22;45078;51.654;21.250;2023-05-10T06:21:55;12.60;91.10
59311;DHT22;45078;51.654;21.250;2023-05-10T06:24:21;12.60;91.70
59311;DHT22;45078;51.654;21.250;2023-05-10T06:26:47;12.90;92.50
59311;DHT22;45078;51.654;21.250;2023-05-10T06:29:15;13.10;92.20
59311;DHT22;45078;51.654;21.250;2023-05-10T06:31:40;13.10;88.30
59311;DHT22;45078;51.654;21.250;2023-05-10T06:34:06;13.00;89.20
59311;DHT22;45078;51.654;21.250;2023-05-10T06:36:33;13.20;89.50
59311;DHT22;45078;51.654;21.250;2023-05-10T06:38:59;13.40;84.80
59311;DHT22;45078;51.654;21.250;2023-05-10T06:41:25;13.50;84.20
59311;DHT22;45078;51.654;21.250;2023-05-10T06:43:50;13.50;81.80
59311;DHT22;45078;51.654;21.250;2023-05-10T06:46:16;13.60;85.60
59311;DHT22;45078;51.654;21.250;2023-05-10T06:48:42;13.60;83.10
59311;DHT22;45078;51.654;21.250;2023-05-10T06:51:09;13.70;81.80
59311;DHT22;45078;51.654;21.250;2023-05-10T06:53:34;13.90;76.30
59311;DHT22;45078;51.654;21.250;2023-05-10T06:56:00;13.90;74.40
59311;DHT22;45078;51.654;21.250;2023-05-10T06:58:26;14.10;76.30
59311;DHT22;45078;51.654;21.250;2023-05-10T07:00:52;14.00;71.50
59311;DHT22;45078;51.654;21.250;2023-05-10T07:03:17;14.10;71.60
59311;DHT22;45078;51.654;21.250;2023-05-10T07:05:43;14.10;70.40
59311;DHT22;45078;51.654;21.250;2023-05-10T07:08:09;14.30;68.60
59311;DHT22;45078;51.654;21.250;2023-05-10T07:10:35;14.50;67.50
59311;DHT22;45078;51.654;21.250;2023-05-10T07:13:01;14.40;64.60
59311;DHT22;45078;51.654;21.250;2023-05-10T07:15:27;14.40;64.10
59311;DHT22;45078;51.654;21.250;2023-05-10T07:17:53;14.50;63.50
59311;DHT22;45078;51.654;21.250;2023-05-10T07:20:19;14.30;62.00
59311;DHT22;45078;51.654;21.250;2023-05-10T07:22:45;14.40;61.40
59311;DHT22;45078;51.654;21.250;2023-05-10T07:25:10;14.40;62.10
59311;DHT22;45078;51.654;21.250;2023-05-10T07:27:36;14.40;59.20
59311;DHT22;45078;51.654;21.250;2023-05-10T07:30:02;14.40;61.20
59311;DHT22;45078;51.654;21.250;2023-05-10T07:32:28;14.50;60.70
59311;DHT22;45078;51.654;21.250;2023-05-10T07:34:53;14.50;58.40
59311;DHT22;45078;51.654;21.250;2023-05-10T07:37:19;14.50;61.30
59311;DHT22;45078;51.654;21.250;2023-05-10T07:39:45;14.30;59.00
59311;DHT22;45078;51.654;21.250;2023-05-10T07:42:11;14.50;59.70
59311;DHT22;45078;51.654;21.250;2023-05-10T07:44:36;14.60;57.60
59311;DHT22;45078;51.654;21.250;2023-05-10T07:47:02;14.70;57.60
59311;DHT22;45078;51.654;21.250;2023-05-10T07:49:28;14.60;56.70
59311;DHT22;45078;51.654;21.250;2023-05-10T07:51:53;14.60;56.10
59311;DHT22;45078;51.654;21.250;2023-05-10T07:54:19;14.60;56.70
59311;DHT22;45078;51.654;21.250;2023-05-10T07:56:45;14.60;56.30
59311;DHT22;45078;51.654;21.250;2023-05-10T07:59:16;14.80;57.30
59311;DHT22;45078;51.654;21.250;2023-05-10T08:01:43;14.80;56.80
59311;DHT22;45078;51.654;21.250;2023-05-10T08:04:08;14.80;56.30
59311;DHT22;45078;51.654;21.250;2023-05-10T08:06:34;14.80;56.60
59311;DHT22;45078;51.654;21.250;2023-05-10T08:09:00;14.70;55.40
59311;DHT22;45078;51.654;21.250;2023-05-10T08:11:26;15.00;56.90
59311;DHT22;45078;51.654;21.250;2023-05-10T08:13:53;14.90;55.70
59311;DHT22;45078;51.654;21.250;2023-05-10T08:16:20;15.00;56.60
59311;DHT22;45078;51.654;21.250;2023-05-10T08:18:46;15.20;58.80
59311;DHT22;45078;51.654;21.250;2023-05-10T08:21:13;15.40;56.50
59311;DHT22;45078;51.654;21.250;2023-05-10T08:23:39;15.40;55.60
59311;DHT22;45078;51.654;21.250;2023-05-10T08:26:05;15.30;55.20
59311;DHT22;45078;51.654;21.250;2023-05-10T08:28:31;15.40;56.10
59311;DHT22;45078;51.654;21.250;2023-05-10T08:30:57;15.40;56.10
59311;DHT22;45078;51.654;21.250;2023-05-10T08:33:23;15.20;55.40
59311;DHT22;45078;51.654;21.250;2023-05-10T08:35:48;15.30;55.60
59311;DHT22;45078;51.654;21.250;2023-05-10T08:38:14;15.50;55.70
59311;DHT22;45078;51.654;21.250;2023-05-10T08:40:44;15.40;55.70
59311;DHT22;45078;51.654;21.250;2023-05-10T08:43:11;15.40;55.50
59311;DHT22;45078;51.654;21.250;2023-05-10T08:45:39;15.40;57.20
59311;DHT22;45078;51.654;21.250;2023-05-10T08:48:07;15.40;55.30
59311;DHT22;45078;51.654;21.250;2023-05-10T08:50:40;15.50;55.30
59311;DHT22;45078;51.654;21.250;2023-05-10T08:53:10;15.30;53.00
59311;DHT22;45078;51.654;21.250;2023-05-10T08:55:37;15.40;54.30
59311;DHT22;45078;51.654;21.250;2023-05-10T08:58:04;15.60;56.80
59311;DHT22;45078;51.654;21.250;2023-05-10T09:00:31;15.60;56.10
59311;DHT22;45078;51.654;21.250;2023-05-10T09:03:01;15.50;53.80
59311;DHT22;45078;51.654;21.250;2023-05-10T09:05:27;15.30;54.40
59311;DHT22;45078;51.654;21.250;2023-05-10T09:07:53;15.60;55.10
59311;DHT22;45078;51.654;21.250;2023-05-10T09:10:20;15.60;53.60
59311;DHT22;45078;51.654;21.250;2023-05-10T09:12:46;15.70;53.50
59311;DHT22;45078;51.654;21.250;2023-05-10T09:15:15;15.60;54.00
59311;DHT22;45078;51.654;21.250;2023-05-10T09:17:44;15.60;54.30
59311;DHT22;45078;51.654;21.250;2023-05-10T09:20:11;15.60;53.70
59311;DHT22;45078;51.654;21.250;2023-05-10T09:22:37;15.80;54.40
59311;DHT22;45078;51.654;21.250;2023-05-10T09:25:10;16.10;54.90
59311;DHT22;45078;51.654;21.250;2023-05-10T09:27:40;15.90;53.60
59311;DHT22;45078;51.654;21.250;2023-05-10T09:30:07;15.80;53.90
59311;DHT22;45078;51.654;21.250;2023-05-10T09:32:39;16.00;55.40
59311;DHT22;45078;51.654;21.250;2023-05-10T09:35:10;16.30;55.50
59311;DHT22;45078;51.654;21.250;2023-05-10T09:37:36;16.30;54.60
59311;DHT22;45078;51.654;21.250;2023-05-10T09:40:06;16.30;52.20
59311;DHT22;45078;51.654;21.250;2023-05-10T09:42:34;16.10;52.30
59311;DHT22;45078;51.654;21.250;2023-05-10T09:45:04;15.90;54.50
59311;DHT22;45078;51.654;21.250;2023-05-10T09:47:34;16.00;54.20
59311;DHT22;45078;51.654;21.250;2023-05-10T09:50:00;16.10;54.90
59311;DHT22;45078;51.654;21.250;2023-05-10T09:55:15;16.20;54.60
59311;DHT22;45078;51.654;21.250;2023-05-10T09:57:41;16.10;53.80
59311;DHT22;45078;51.654;21.250;2023-05-10T10:00:08;16.30;54.00
59311;DHT22;45078;51.654;21.250;2023-05-10T10:02:35;16.20;53.10
59311;DHT22;45078;51.654;21.250;2023-05-10T10:05:02;16.60;56.70
59311;DHT22;45078;51.654;21.250;2023-05-10T10:07:31;16.80;55.50
59311;DHT22;45078;51.654;21.250;2023-05-10T10:09:58;16.90;54.70
59311;DHT22;45078;51.654;21.250;2023-05-10T10:12:25;17.00;53.90
59311;DHT22;45078;51.654;21.250;2023-05-10T10:14:51;16.60;51.80
59311;DHT22;45078;51.654;21.250;2023-05-10T10:17:19;16.60;52.70
59311;DHT22;45078;51.654;21.250;2023-05-10T10:19:47;16.70;53.00
59311;DHT22;45078;51.654;21.250;2023-05-10T10:22:13;16.60;51.30
59311;DHT22;45078;51.654;21.250;2023-05-10T10:24:40;16.40;52.40
59311;DHT22;45078;51.654;21.250;2023-05-10T10:27:20;16.60;54.50
59311;DHT22;45078;51.654;21.250;2023-05-10T10:32:38;16.40;51.80
59311;DHT22;45078;51.654;21.250;2023-05-10T10:35:09;16.60;52.60
59311;DHT22;45078;51.654;21.250;2023-05-10T10:37:50;16.60;53.80
59311;DHT22;45078;51.654;21.250;2023-05-10T10:40:34;16.70;54.10
59311;DHT22;45078;51.654;21.250;2023-05-10T10:43:26;16.70;52.70
59311;DHT22;45078;51.654;21.250;2023-05-10T10:46:13;16.40;52.70
59311;DHT22;45078;51.654;21.250;2023-05-10T10:48:41;16.40;54.00
59311;DHT22;45078;51.654;21.250;2023-05-10T10:51:07;16.30;52.90
59311;DHT22;45078;51.654;21.250;2023-05-10T10:53:33;16.50;53.70
59311;DHT22;45078;51.654;21.250;2023-05-10T10:56:12;16.50;53.80
59311;DHT22;45078;51.654;21.250;2023-05-10T10:58:40;16.60;53.50
59311;DHT22;45078;51.654;21.250;2023-05-10T11:01:19;16.80;55.10
59311;DHT22;45078;51.654;21.250;2023-05-10T11:06:34;16.70;54.40
59311;DHT22;45078;51.654;21.250;2023-05-10T11:09:08;16.60;55.40
59311;DHT22;45078;51.654;21.250;2023-05-10T11:11:35;16.70;55.40
59311;DHT22;45078;51.654;21.250;2023-05-10T11:14:06;16.70;54.70
59311;DHT22;45078;51.654;21.250;2023-05-10T11:16:44;16.70;54.60
59311;DHT22;45078;51.654;21.250;2023-05-10T11:19:15;16.60;54.80
59311;DHT22;45078;51.654;21.250;2023-05-10T11:21:47;16.70;56.60
59311;DHT22;45078;51.654;21.250;2023-05-10T11:24:17;16.60;57.20
59311;DHT22;45078;51.654;21.250;2023-05-10T11:26:43;16.90;55.90
59311;DHT22;45078;51.654;21.250;2023-05-10T11:29:09;17.10;55.30
59311;DHT22;45078;51.654;21.250;2023-05-10T11:31:35;17.10;57.00
59311;DHT22;45078;51.654;21.250;2023-05-10T11:34:07;17.20;57.00
59311;DHT22;45078;51.654;21.250;2023-05-10T11:36:34;17.10;55.20
59311;DHT22;45078;51.654;21.250;2023-05-10T11:39:01;17.10;56.00
59311;DHT22;45078;51.654;21.250;2023-05-10T11:41:29;17.20;57.30
59311;DHT22;45078;51.654;21.250;2023-05-10T11:43:57;17.20;55.70
59311;DHT22;45078;51.654;21.250;2023-05-10T11:46:25;17.30;56.30
59311;DHT22;45078;51.654;21.250;2023-05-10T11:49:02;17.40;56.70
59311;DHT22;45078;51.654;21.250;2023-05-10T11:51:32;17.10;55.90
59311;DHT22;45078;51.654;21.250;2023-05-10T11:53:58;17.00;55.90
59311;DHT22;45078;51.654;21.250;2023-05-10T11:56:24;17.10;57.20
59311;DHT22;45078;51.654;21.250;2023-05-10T11:58:54;17.10;57.10
59311;DHT22;45078;51.654;21.250;2023-05-10T12:01:21;17.10;57.20
59311;DHT22;45078;51.654;21.250;2023-05-10T12:03:48;17.30;58.00
59311;DHT22;45078;51.654;21.250;2023-05-10T12:06:14;17.10;56.50
59311;DHT22;45078;51.654;21.250;2023-05-10T12:08:45;17.10;56.20
59311;DHT22;45078;51.654;21.250;2023-05-10T12:11:12;17.40;56.70
59311;DHT22;45078;51.654;21.250;2023-05-10T12:13:42;17.40;54.70
59311;DHT22;45078;51.654;21.250;2023-05-10T12:16:25;17.40;55.30
59311;DHT22;45078;51.654;21.250;2023-05-10T12:18:53;17.40;55.40
59311;DHT22;45078;51.654;21.250;2023-05-10T12:21:20;17.30;55.70
59311;DHT22;45078;51.654;21.250;2023-05-10T12:23:48;17.60;56.50
59311;DHT22;45078;51.654;21.250;2023-05-10T12:26:14;17.50;55.80
59311;DHT22;45078;51.654;21.250;2023-05-10T12:28:40;17.40;54.70
59311;DHT22;45078;51.654;21.250;2023-05-10T12:31:07;17.30;56.20
59311;DHT22;45078;51.654;21.250;2023-05-10T12:33:37;17.50;56.40
59311;DHT22;45078;51.654;21.250;2023-05-10T12:36:10;17.80;55.80
59311;DHT22;45078;51.654;21.250;2023-05-10T12:38:41;17.60;54.10
59311;DHT22;45078;51.654;21.250;2023-05-10T12:41:10;17.40;54.40
59311;DHT22;45078;51.654;21.250;2023-05-10T12:43:36;17.50;55.00
59311;DHT22;45078;51.654;21.250;2023-05-10T12:46:12;17.40;55.70
59311;DHT22;45078;51.654;21.250;2023-05-10T12:48:39;17.30;55.00
59311;DHT22;45078;51.654;21.250;2023-05-10T12:51:05;17.50;55.60
59311;DHT22;45078;51.654;21.250;2023-05-10T12:53:35;17.40;55.60
59311;DHT22;45078;51.654;21.250;2023-05-10T12:56:01;17.30;56.10
59311;DHT22;45078;51.654;21.250;2023-05-10T12:58:27;17.40;56.90
59311;DHT22;45078;51.654;21.250;2023-05-10T13:00:53;17.40;55.40
59311;DHT22;45078;51.654;21.250;2023-05-10T13:03:19;17.60;55.60
59311;DHT22;45078;51.654;21.250;2023-05-10T13:05:44;17.70;54.80
59311;DHT22;45078;51.654;21.250;2023-05-10T13:08:10;17.90;54.50
59311;DHT22;45078;51.654;21.250;2023-05-10T13:10:36;18.20;55.30
59311;DHT22;45078;51.654;21.250;2023-05-10T13:13:02;17.90;52.60
59311;DHT22;45078;51.654;21.250;2023-05-10T13:15:28;18.20;55.50
59311;DHT22;45078;51.654;21.250;2023-05-10T13:17:54;18.20;53.90
59311;DHT22;45078;51.654;21.250;2023-05-10T13:20:20;18.00;53.40
59311;DHT22;45078;51.654;21.250;2023-05-10T13:22:46;17.80;52.30
59311;DHT22;45078;51.654;21.250;2023-05-10T13:25:12;18.10;55.30
59311;DHT22;45078;51.654;21.250;2023-05-10T13:27:41;18.20;53.80
59311;DHT22;45078;51.654;21.250;2023-05-10T13:30:08;18.10;53.60
59311;DHT22;45078;51.654;21.250;2023-05-10T13:32:34;18.10;55.10
59311;DHT22;45078;51.654;21.250;2023-05-10T13:35:00;18.40;54.40
59311;DHT22;45078;51.654;21.250;2023-05-10T13:37:25;18.70;53.70
59311;DHT22;45078;51.654;21.250;2023-05-10T13:39:51;18.50;51.70
59311;DHT22;45078;51.654;21.250;2023-05-10T13:42:17;18.40;52.50
59311;DHT22;45078;51.654;21.250;2023-05-10T13:44:43;18.90;52.70
59311;DHT22;45078;51.654;21.250;2023-05-10T13:47:09;19.10;52.00
59311;DHT22;45078;51.654;21.250;2023-05-10T13:49:35;18.50;51.70
59311;DHT22;45078;51.654;21.250;2023-05-10T13:52:01;18.80;51.80
59311;DHT22;45078;51.654;21.250;2023-05-10T13:54:36;18.60;52.40
59311;DHT22;45078;51.654;21.250;2023-05-10T13:57:02;19.10;53.50
59311;DHT22;45078;51.654;21.250;2023-05-10T13:59:29;19.00;51.10
59311;DHT22;45078;51.654;21.250;2023-05-10T14:01:57;19.20;53.20
59311;DHT22;45078;51.654;21.250;2023-05-10T14:04:23;19.30;50.50
59311;DHT22;45078;51.654;21.250;2023-05-10T14:06:49;19.60;51.20
59311;DHT22;45078;51.654;21.250;2023-05-10T14:09:15;19.20;52.30
59311;DHT22;45078;51.654;21.250;2023-05-10T14:11:41;19.50;53.10
59311;DHT22;45078;51.654;21.250;2023-05-10T14:14:09;19.60;50.10
59311;DHT22;45078;51.654;21.250;2023-05-10T14:16:35;19.70;51.60
59311;DHT22;45078;51.654;21.250;2023-05-10T14:19:00;19.90;52.00
59311;DHT22;45078;51.654;21.250;2023-05-10T14:21:27;19.90;49.70
59311;DHT22;45078;51.654;21.250;2023-05-10T14:23:55;20.30;50.90
59311;DHT22;45078;51.654;21.250;2023-05-10T14:26:21;20.40;50.00
59311;DHT22;45078;51.654;21.250;2023-05-10T14:28:47;20.70;49.30
59311;DHT22;45078;51.654;21.250;2023-05-10T14:31:13;19.60;49.00
59311;DHT22;45078;51.654;21.250;2023-05-10T14:33:40;19.60;50.60
59311;DHT22;45078;51.654;21.250;2023-05-10T14:36:06;19.60;51.50
59311;DHT22;45078;51.654;21.250;2023-05-10T14:38:32;20.10;52.50
59311;DHT22;45078;51.654;21.250;2023-05-10T14:40:58;20.00;50.90
59311;DHT22;45078;51.654;21.250;2023-05-10T14:43:24;19.40;51.40
59311;DHT22;45078;51.654;21.250;2023-05-10T14:45:50;19.00;52.10
59311;DHT22;45078;51.654;21.250;2023-05-10T14:48:15;19.20;52.70
59311;DHT22;45078;51.654;21.250;2023-05-10T14:50:43;19.10;51.80
59311;DHT22;45078;51.654;21.250;2023-05-10T14:53:09;19.10;53.60
59311;DHT22;45078;51.654;21.250;2023-05-10T14:55:35;18.80;52.50
59311;DHT22;45078;51.654;21.250;2023-05-10T14:58:04;18.40;52.30
59311;DHT22;45078;51.654;21.250;2023-05-10T15:00:30;18.50;52.10
59311;DHT22;45078;51.654;21.250;2023-05-10T15:02:56;18.80;54.60
59311;DHT22;45078;51.654;21.250;2023-05-10T15:05:23;18.90;53.20
59311;DHT22;45078;51.654;21.250;2023-05-10T15:07:48;18.90;53.10
59311;DHT22;45078;51.654;21.250;2023-05-10T15:10:15;18.90;52.70
59311;DHT22;45078;51.654;21.250;2023-05-10T15:12:40;19.20;53.30
59311;DHT22;45078;51.654;21.250;2023-05-10T15:15:07;18.60;51.70
59311;DHT22;45078;51.654;21.250;2023-05-10T15:17:33;18.50;52.00
59311;DHT22;45078;51.654;21.250;2023-05-10T15:19:59;18.30;51.90
59311;DHT22;45078;51.654;21.250;2023-05-10T15:22:25;18.30;53.00
59311;DHT22;45078;51.654;21.250;2023-05-10T15:24:51;18.20;52.80
59311;DHT22;45078;51.654;21.250;2023-05-10T15:27:17;18.20;52.20
59311;DHT22;45078;51.654;21.250;2023-05-10T15:29:42;17.80;52.90
59311;DHT22;45078;51.654;21.250;2023-05-10T15:32:08;18.00;53.40
59311;DHT22;45078;51.654;21.250;2023-05-10T15:34:34;18.30;53.50
59311;DHT22;45078;51.654;21.250;2023-05-10T15:36:59;18.40;53.20
59311;DHT22;45078;51.654;21.250;2023-05-10T15:39:25;18.20;52.20
59311;DHT22;45078;51.654;21.250;2023-05-10T15:41:51;18.00;51.70
59311;DHT22;45078;51.654;21.250;2023-05-10T15:44:17;18.10;52.80
59311;DHT22;45078;51.654;21.250;2023-05-10T15:46:44;18.10;53.20
59311;DHT22;45078;51.654;21.250;2023-05-10T15:49:10;17.90;52.90
59311;DHT22;45078;51.654;21.250;2023-05-10T15:51:36;18.10;53.10
59311;DHT22;45078;51.654;21.250;2023-05-10T15:54:02;18.00;52.60